Decoded Metar for ULOO (PSKOV in RUSSIA) (IATA:PKV) | Meteo·Mobile Aviation Weather
aviador You're here:

ULOO Decoded Metar

PSKOV in RUSSIA
Report Time2018-10-17 20:00:00
UTC Time2018-10-17 20:14:34
Flight Rules ifr IFR
Wind160° at 2 kt
W.Decomp.*RWY 19: 1.6 kt HW 1.2 kt LCW
W.Rank160° ranks 7
Current wind is below 160° avg. (6.3)
Visibility4400 m
Phenomena:N/A
Clouds:N/A
Expected CloudBase > 400 ft AGL from Temp-Dew spread
CeilingNone
Temp06°C (ISA -9)
Dew Point05°C (93% RH)
AAT4.1°C
QNH1022 hPa
Density Alt-1,083 ft
Elevation154 ft
Report Wrong Elevation
Raw Report
ULOO 172000Z AUTO 16001MPS 4400 // NCD 06/05 Q1022 RMK QFE762=

Extra information for ULOO:More info

Metar Taf Metar & Taf Last 4 Metars F.Rules Stats Wind Profile Meteogram Temp Stats Airport Information Weather charts Add Link Nearby VenuesMetar ALERT Operation Metar Decoded Social comments